createdAt,value
2018-03-31T00:00:33.565Z,84.2
2018-03-31T00:01:14.051Z,83.92
2018-03-31T00:01:54.541Z,84.01
2018-03-31T00:02:35.068Z,84.59
2018-03-31T00:03:15.535Z,84.78
2018-03-31T00:03:56.042Z,84.59
2018-03-31T00:04:36.543Z,84.49
2018-03-31T00:05:17.066Z,84.4
2018-03-31T00:05:57.764Z,84.69
2018-03-31T00:06:38.254Z,83.92
2018-03-31T00:07:18.723Z,83.92
2018-03-31T00:07:59.215Z,83.44
2018-03-31T00:08:39.689Z,83.83
2018-03-31T00:09:20.168Z,84.01
2018-03-31T00:10:00.662Z,83.83
2018-03-31T00:10:41.147Z,84.2
2018-03-31T00:11:21.604Z,84.2
2018-03-31T00:12:02.143Z,83.44
2018-03-31T00:12:42.600Z,83.92
2018-03-31T00:13:23.080Z,83.73
2018-03-31T00:14:03.587Z,84.3
2018-03-31T00:14:44.069Z,84.2
2018-03-31T00:15:24.555Z,84.3
2018-03-31T00:16:05.053Z,84.2
2018-03-31T00:16:45.542Z,83.92
2018-03-31T00:17:26.038Z,84.4
2018-03-31T00:18:06.535Z,84.88
2018-03-31T00:18:46.972Z,83.92
2018-03-31T00:19:27.478Z,84.01
2018-03-31T00:20:07.965Z,84.11
2018-03-31T00:20:48.412Z,83.83
2018-03-31T00:21:28.920Z,84.4
2018-03-31T00:22:09.395Z,84.78
2018-03-31T00:22:49.914Z,84.64
2018-03-31T00:23:30.383Z,84.2
2018-03-31T00:24:10.876Z,84.3
2018-03-31T00:24:51.373Z,84.88
2018-03-31T00:25:31.885Z,84.78
2018-03-31T00:26:12.371Z,84.78
2018-03-31T00:26:52.820Z,84.2
2018-03-31T00:27:33.372Z,84.59
2018-03-31T00:28:13.819Z,84.49
2018-03-31T00:28:54.302Z,84.59
2018-03-31T00:29:34.769Z,84.74
2018-03-31T00:30:15.224Z,85.41
2018-03-31T00:30:55.774Z,85.41
2018-03-31T00:31:36.369Z,85.25
2018-03-31T00:32:16.853Z,85.54
2018-03-31T00:32:57.376Z,84.59
2018-03-31T00:33:37.789Z,84.69
2018-03-31T00:34:18.325Z,84.3
2018-03-31T00:34:58.763Z,84.59
2018-03-31T00:35:39.312Z,84.59
2018-03-31T00:36:19.774Z,84.69
2018-03-31T00:37:00.244Z,84.97
2018-03-31T00:37:40.729Z,84.59
2018-03-31T00:38:21.535Z,84.11
2018-03-31T00:39:02.008Z,84.49
2018-03-31T00:39:42.511Z,84.4
2018-03-31T00:40:22.980Z,84.01
2018-03-31T00:41:03.465Z,84.78
2018-03-31T00:41:43.930Z,83.83
2018-03-31T00:42:24.398Z,83.73
2018-03-31T00:43:04.929Z,84.01
2018-03-31T00:43:45.414Z,84.78
2018-03-31T00:44:25.902Z,84.2
2018-03-31T00:45:06.386Z,84.01
2018-03-31T00:45:47.138Z,84.01
2018-03-31T00:46:27.674Z,83.83
2018-03-31T00:47:08.132Z,83.83
2018-03-31T00:47:48.620Z,83.54
2018-03-31T00:48:29.112Z,83.64
2018-03-31T00:49:09.585Z,83.73
2018-03-31T00:49:50.125Z,84.3
2018-03-31T00:50:30.611Z,84.3
2018-03-31T00:51:11.124Z,84.2
2018-03-31T00:51:51.560Z,84.2
2018-03-31T00:52:32.128Z,84.49
2018-03-31T00:53:12.919Z,84.3
2018-03-31T00:53:53.372Z,84.97
2018-03-31T00:54:33.858Z,85.54
2018-03-31T00:55:14.339Z,85.31
2018-03-31T00:55:54.823Z,84.97
2018-03-31T00:56:35.327Z,85.21
2018-03-31T00:57:15.765Z,85.31
2018-03-31T00:57:56.330Z,85.12
2018-03-31T00:58:36.774Z,85.5
2018-03-31T00:59:17.276Z,85.78
2018-03-31T00:59:57.719Z,85.6
2018-03-31T01:00:38.261Z,85.6
2018-03-31T01:01:18.851Z,85.78
2018-03-31T01:01:59.248Z,85.78
2018-03-31T01:02:39.696Z,85.12
2018-03-31T01:03:20.205Z,85.02
2018-03-31T01:04:00.670Z,85.02
2018-03-31T01:04:41.154Z,84.92
2018-03-31T01:05:21.623Z,85.12
2018-03-31T01:06:02.110Z,85.6
2018-03-31T01:06:42.651Z,85.78
2018-03-31T01:07:23.163Z,85.31
2018-03-31T01:08:03.671Z,85.41
2018-03-31T01:08:44.110Z,85.6
2018-03-31T01:09:24.603Z,85.6
2018-03-31T01:10:05.087Z,86.07
2018-03-31T01:10:45.633Z,85.6
2018-03-31T01:11:26.093Z,85.5
2018-03-31T01:12:06.549Z,85.5
2018-03-31T01:12:47.019Z,85.35
2018-03-31T01:13:27.573Z,85.41
2018-03-31T01:14:08.003Z,85.45
2018-03-31T01:14:48.489Z,85.45
2018-03-31T01:15:29.068Z,85.06
2018-03-31T01:16:09.529Z,85.64
2018-03-31T01:16:50.001Z,85.06
2018-03-31T01:17:30.489Z,85.54
2018-03-31T01:18:10.990Z,84.88
2018-03-31T01:18:51.441Z,84.3
2018-03-31T01:19:31.959Z,84.88
2018-03-31T01:20:12.428Z,84.64
2018-03-31T01:20:52.907Z,84.83
2018-03-31T01:21:33.375Z,85.41
2018-03-31T01:22:13.881Z,85.64
2018-03-31T01:22:54.368Z,84.97
2018-03-31T01:23:34.843Z,84.69
2018-03-31T01:24:15.335Z,84.59
2018-03-31T01:24:55.851Z,84.78
2018-03-31T01:25:36.323Z,85.45
2018-03-31T01:26:16.774Z,85.21
2018-03-31T01:26:57.266Z,85.31
2018-03-31T01:27:37.988Z,85.78
2018-03-31T01:28:18.472Z,85.6
2018-03-31T01:28:58.966Z,85.21
2018-03-31T01:29:39.429Z,85.21
2018-03-31T01:30:19.920Z,85.41
2018-03-31T01:31:00.419Z,85.06
2018-03-31T01:31:40.892Z,85.06
2018-03-31T01:32:21.370Z,85.64
2018-03-31T01:33:01.855Z,84.88
2018-03-31T01:33:42.358Z,84.4
2018-03-31T01:34:22.805Z,84.49
2018-03-31T01:35:03.323Z,84.74
2018-03-31T01:35:43.795Z,85.12
2018-03-31T01:36:24.287Z,85.31
2018-03-31T01:37:04.762Z,85.5
2018-03-31T01:37:45.223Z,85.78
2018-03-31T01:38:25.711Z,85.69
2018-03-31T01:39:06.156Z,85.21
2018-03-31T01:39:46.682Z,85.41
2018-03-31T01:40:27.194Z,84.92
2018-03-31T01:41:07.696Z,85.02
2018-03-31T01:41:48.194Z,85.12
2018-03-31T01:42:28.650Z,84.83
2018-03-31T01:43:09.118Z,85.78
2018-03-31T01:43:49.604Z,85.6
2018-03-31T01:44:30.082Z,85.31
2018-03-31T01:45:10.500Z,85.5
2018-03-31T01:45:51.000Z,85.35
2018-03-31T01:46:31.472Z,85.31
2018-03-31T01:47:12.000Z,84.92
2018-03-31T01:47:52.484Z,85.02
2018-03-31T01:48:33.267Z,85.12
2018-03-31T01:49:13.765Z,85.41
2018-03-31T01:49:54.210Z,85.21
2018-03-31T01:50:34.704Z,85.5
2018-03-31T01:51:15.192Z,85.64
2018-03-31T01:51:55.683Z,84.88
2018-03-31T01:52:36.138Z,84.55
2018-03-31T01:53:16.637Z,84.78
2018-03-31T01:53:57.126Z,84.69
2018-03-31T01:54:37.582Z,84.49
2018-03-31T01:55:18.102Z,84.69
2018-03-31T01:55:58.543Z,84.4
2018-03-31T01:56:39.188Z,83.92
2018-03-31T01:57:19.697Z,84.2
2018-03-31T01:58:00.189Z,84.4
2018-03-31T01:58:40.674Z,84.07
2018-03-31T01:59:21.133Z,84.26
2018-03-31T02:00:01.604Z,84.88
2018-03-31T02:00:42.121Z,84.83
2018-03-31T02:01:22.549Z,84.83
2018-03-31T02:02:03.109Z,84.59
2018-03-31T02:02:43.555Z,84.64
2018-03-31T02:03:24.004Z,84.55
2018-03-31T02:04:04.523Z,84.83
2018-03-31T02:04:45.005Z,84.92
2018-03-31T02:05:25.516Z,84.83
2018-03-31T02:06:05.981Z,84.55
2018-03-31T02:06:46.495Z,84.92
2018-03-31T02:07:26.986Z,84.3
2018-03-31T02:08:07.509Z,84.55
2018-03-31T02:08:47.968Z,84.59
2018-03-31T02:09:28.449Z,84.2
2018-03-31T02:10:08.912Z,83.78
2018-03-31T02:10:49.408Z,84.55
2018-03-31T02:11:29.972Z,84.97
2018-03-31T02:12:10.424Z,83.92
2018-03-31T02:12:50.957Z,83.64
2018-03-31T02:13:31.453Z,84.2
2018-03-31T02:14:11.936Z,83.54
2018-03-31T02:14:52.427Z,83.64
2018-03-31T02:15:32.915Z,83.44
2018-03-31T02:16:13.432Z,83.16
2018-03-31T02:16:53.944Z,83.25
2018-03-31T02:17:34.446Z,83.54
2018-03-31T02:18:14.937Z,84.3
2018-03-31T02:18:55.428Z,83.88
2018-03-31T02:19:35.925Z,84.49
2018-03-31T02:20:16.415Z,83.92
2018-03-31T02:20:56.919Z,84.2
2018-03-31T02:21:37.420Z,83.64
2018-03-31T02:22:17.899Z,83.44
2018-03-31T02:22:58.389Z,83.78
2018-03-31T02:23:38.906Z,84.59
2018-03-31T02:24:19.416Z,84.64
2018-03-31T02:24:59.853Z,84.26
2018-03-31T02:25:40.368Z,84.92
2018-03-31T02:26:20.822Z,84.83
2018-03-31T02:27:01.306Z,84.92
2018-03-31T02:27:41.826Z,85.5
2018-03-31T02:28:22.300Z,84.74
2018-03-31T02:29:02.807Z,84.78
2018-03-31T02:29:43.313Z,84.59
2018-03-31T02:30:23.853Z,83.92
2018-03-31T02:31:04.313Z,84.2
2018-03-31T02:31:44.816Z,84.11
2018-03-31T02:32:25.299Z,83.83
2018-03-31T02:33:05.818Z,84.2
2018-03-31T02:33:46.336Z,84.3
2018-03-31T02:34:26.799Z,83.83
2018-03-31T02:35:07.316Z,84.2
2018-03-31T02:35:47.788Z,84.55
2018-03-31T02:36:28.295Z,84.45
2018-03-31T02:37:08.869Z,84.36
2018-03-31T02:37:49.290Z,84.55
2018-03-31T02:38:29.817Z,84.55
2018-03-31T02:39:10.282Z,83.97
2018-03-31T02:39:50.795Z,84.92
2018-03-31T02:40:31.310Z,85.6
2018-03-31T02:41:11.833Z,84.55
2018-03-31T02:41:52.296Z,84.83
2018-03-31T02:42:32.807Z,84.16
2018-03-31T02:43:13.350Z,84.74
2018-03-31T02:43:53.749Z,85.31
2018-03-31T02:44:34.302Z,84.83
2018-03-31T02:45:14.804Z,84.83
2018-03-31T02:45:55.288Z,84.92
2018-03-31T02:46:35.752Z,84.74
2018-03-31T02:47:16.285Z,84.92
2018-03-31T02:47:56.783Z,84.45
2018-03-31T02:48:37.292Z,84.36
2018-03-31T02:49:17.800Z,84.74
2018-03-31T02:49:58.290Z,84.55
2018-03-31T02:50:38.812Z,84.55
2018-03-31T02:51:19.275Z,83.59
2018-03-31T02:51:59.792Z,83.78
2018-03-31T02:52:40.282Z,84.55
2018-03-31T02:53:20.818Z,84.64
2018-03-31T02:54:01.297Z,84.74
2018-03-31T02:54:41.853Z,84.26
2018-03-31T02:55:22.368Z,83.59
2018-03-31T02:56:02.835Z,84.2
2018-03-31T02:56:43.369Z,83.5
2018-03-31T02:57:23.890Z,83.64
2018-03-31T02:58:04.402Z,83.83
2018-03-31T02:58:44.904Z,83.78
2018-03-31T02:59:25.408Z,84.55
2018-03-31T03:00:05.930Z,84.55
2018-03-31T03:00:46.394Z,84.11
2018-03-31T03:01:26.964Z,84.16
2018-03-31T03:02:07.431Z,83.64
2018-03-31T03:02:47.910Z,83.54
2018-03-31T03:03:28.364Z,83.54
2018-03-31T03:04:08.869Z,83.44
2018-03-31T03:04:49.376Z,83.25
2018-03-31T03:05:29.876Z,83.35
2018-03-31T03:06:10.364Z,83.16
2018-03-31T03:06:50.857Z,82.78
2018-03-31T03:07:31.368Z,83.25
2018-03-31T03:08:11.860Z,82.87
2018-03-31T03:08:52.428Z,82.68
2018-03-31T03:09:32.922Z,82.87
2018-03-31T03:10:13.428Z,82.59
2018-03-31T03:10:53.916Z,82.97
2018-03-31T03:11:34.426Z,82.97
2018-03-31T03:12:14.935Z,82.78
2018-03-31T03:12:55.424Z,82.97
2018-03-31T03:13:36.933Z,82.87
2018-03-31T03:14:17.398Z,82.87
2018-03-31T03:14:57.924Z,83.54
2018-03-31T03:15:38.426Z,82.87
2018-03-31T03:16:18.949Z,83.16
2018-03-31T03:16:59.464Z,82.68
2018-03-31T03:17:39.915Z,82.49
2018-03-31T03:18:20.416Z,82.4
2018-03-31T03:19:00.908Z,82.4
2018-03-31T03:19:41.430Z,82.68
2018-03-31T03:20:21.936Z,82.59
2018-03-31T03:21:02.422Z,82.59
2018-03-31T03:21:43.006Z,82.68
2018-03-31T03:22:23.526Z,82.78
2018-03-31T03:23:04.019Z,82.87
2018-03-31T03:23:44.535Z,82.59
2018-03-31T03:24:25.039Z,83.31
2018-03-31T03:25:05.534Z,83.59
2018-03-31T03:25:46.043Z,84.07
2018-03-31T03:26:26.542Z,83.59
2018-03-31T03:27:07.045Z,83.78
2018-03-31T03:27:47.522Z,84.74
2018-03-31T03:28:28.055Z,84.64
2018-03-31T03:30:26.554Z,85.41
2018-03-31T03:31:07.067Z,84.92
2018-03-31T03:31:47.655Z,85.46
2018-03-31T03:32:28.174Z,85.78
2018-03-31T03:34:21.207Z,85.69
2018-03-31T03:35:01.747Z,85.55
2018-03-31T03:35:42.219Z,86.03
2018-03-31T03:36:22.714Z,85.84
2018-03-31T03:37:03.207Z,85.97
2018-03-31T03:37:43.720Z,85.55
2018-03-31T03:38:24.230Z,85.64
2018-03-31T03:39:04.704Z,85.46
2018-03-31T03:39:45.204Z,85.46
2018-03-31T03:40:25.699Z,85.31
2018-03-31T03:41:06.244Z,85.93
2018-03-31T03:41:46.709Z,85.6
2018-03-31T03:42:27.203Z,85.5
2018-03-31T03:43:07.719Z,85.36
2018-03-31T03:43:48.174Z,85.46
2018-03-31T03:44:28.679Z,85.64
2018-03-31T03:45:09.171Z,85.84
2018-03-31T03:45:49.687Z,86.32
2018-03-31T03:46:30.145Z,85.84
2018-03-31T03:47:10.647Z,86.03
2018-03-31T03:47:51.146Z,86.41
2018-03-31T03:48:31.642Z,85.93
2018-03-31T03:49:12.105Z,86.41
2018-03-31T03:49:52.624Z,86.79
2018-03-31T03:50:33.085Z,86.79
2018-03-31T03:51:13.559Z,86.98
2018-03-31T03:51:54.058Z,87.07
2018-03-31T03:52:34.562Z,87.27
2018-03-31T03:53:15.059Z,87.27
2018-03-31T03:53:55.570Z,87.55
2018-03-31T03:54:36.048Z,87.46
2018-03-31T03:55:16.580Z,87.17
2018-03-31T03:55:57.103Z,87.07
2018-03-31T03:56:37.582Z,87.74
2018-03-31T03:57:18.062Z,87.7
2018-03-31T03:57:58.586Z,88.03
2018-03-31T03:58:39.112Z,88.03
2018-03-31T03:59:19.614Z,88.03
2018-03-31T04:00:00.116Z,88.12
2018-03-31T04:00:40.643Z,87.93
2018-03-31T04:01:21.137Z,87.7
2018-03-31T04:02:01.636Z,88.03
2018-03-31T04:02:42.133Z,88.03
2018-03-31T04:03:22.627Z,88.08
2018-03-31T04:04:03.142Z,88.27
2018-03-31T04:04:43.696Z,88.7
2018-03-31T04:05:24.237Z,88.56
2018-03-31T04:06:04.721Z,88.84
2018-03-31T04:06:45.235Z,89.22
2018-03-31T04:07:25.731Z,89.51
2018-03-31T04:08:06.238Z,89.13
2018-03-31T04:08:46.737Z,88.7
2018-03-31T04:09:27.238Z,88.41
2018-03-31T04:10:07.761Z,88.31
2018-03-31T04:10:48.267Z,88.22
2018-03-31T04:11:28.781Z,88.03
2018-03-31T04:12:09.267Z,88.03
2018-03-31T04:12:49.746Z,87.27
2018-03-31T04:13:30.255Z,87.36
2018-03-31T04:14:10.758Z,87.27
2018-03-31T04:14:51.269Z,87.27
2018-03-31T04:15:31.910Z,87.36
2018-03-31T04:16:12.416Z,87.27
2018-03-31T04:16:52.915Z,87.46
2018-03-31T04:17:33.420Z,86.79
2018-03-31T04:18:13.931Z,86.98
2018-03-31T04:18:54.429Z,87.27
2018-03-31T04:19:34.940Z,87.07
2018-03-31T04:20:15.430Z,87.46
2018-03-31T04:20:55.949Z,87.07
2018-03-31T04:21:36.469Z,86.88
2018-03-31T04:22:16.932Z,86.88
2018-03-31T04:22:57.429Z,87.07
2018-03-31T04:23:37.974Z,86.69
2018-03-31T04:24:18.430Z,86.51
2018-03-31T04:24:58.930Z,86.88
2018-03-31T04:25:39.398Z,86.69
2018-03-31T04:26:19.923Z,86.88
2018-03-31T04:27:00.453Z,86.88
2018-03-31T04:27:40.930Z,86.69
2018-03-31T04:28:21.441Z,86.6
2018-03-31T04:29:01.943Z,86.51
2018-03-31T04:29:42.511Z,86.79
2018-03-31T04:30:23.047Z,86.32
2018-03-31T04:31:03.513Z,86.32
2018-03-31T04:31:44.033Z,86.88
2018-03-31T04:32:24.552Z,86.51
2018-03-31T04:33:05.049Z,86.79
2018-03-31T04:33:45.535Z,87.07
2018-03-31T04:34:26.058Z,87.17
2018-03-31T04:35:06.573Z,87.36
2018-03-31T04:35:47.085Z,87.36
2018-03-31T04:36:27.587Z,86.98
2018-03-31T04:37:08.098Z,87.07
2018-03-31T04:37:48.692Z,87.36
2018-03-31T04:38:29.097Z,87.46
2018-03-31T04:39:09.591Z,87.36
2018-03-31T04:39:50.115Z,87.27
2018-03-31T04:40:30.586Z,87.36
2018-03-31T04:41:11.093Z,87.74
2018-03-31T04:41:51.582Z,87.07
2018-03-31T04:42:32.122Z,87.07
2018-03-31T04:43:12.578Z,87.27
2018-03-31T04:43:53.094Z,87.74
2018-03-31T04:44:33.557Z,87.27
2018-03-31T04:45:14.029Z,87.36
2018-03-31T04:45:54.545Z,87.17
2018-03-31T04:46:35.030Z,86.88
2018-03-31T04:47:15.542Z,86.98
2018-03-31T04:47:56.034Z,86.98
2018-03-31T04:48:36.524Z,87.17
2018-03-31T04:49:17.064Z,86.6
2018-03-31T04:49:57.610Z,86.51
2018-03-31T04:50:38.105Z,86.32
2018-03-31T04:51:18.600Z,86.51
2018-03-31T04:51:59.086Z,86.51
2018-03-31T04:52:39.576Z,86.6
2018-03-31T04:53:20.022Z,86.79
2018-03-31T04:54:00.526Z,87.46
2018-03-31T04:54:41.026Z,87.36
2018-03-31T04:55:21.530Z,87.46
2018-03-31T04:56:02.026Z,87.46
2018-03-31T04:56:42.497Z,87.36
2018-03-31T04:57:22.984Z,87.27
2018-03-31T04:58:03.446Z,87.65
2018-03-31T04:58:44.128Z,87.27
2018-03-31T04:59:24.621Z,87.17
2018-03-31T05:00:05.153Z,87.17
2018-03-31T05:00:45.645Z,87.32
2018-03-31T05:01:26.172Z,87.51
2018-03-31T05:02:06.655Z,88.31
2018-03-31T05:02:47.174Z,88.08
2018-03-31T05:03:27.660Z,88.18
2018-03-31T05:04:08.335Z,87.98
2018-03-31T05:04:48.678Z,88.08
2018-03-31T05:05:29.171Z,88.08
2018-03-31T05:06:09.703Z,88.46
2018-03-31T05:06:50.183Z,88.46
2018-03-31T05:07:30.683Z,88.93
2018-03-31T05:08:11.184Z,89.13
2018-03-31T05:08:51.707Z,88.93
2018-03-31T05:09:32.165Z,89.03
2018-03-31T05:10:12.720Z,88.56
2018-03-31T05:10:53.173Z,88.46
2018-03-31T05:11:33.690Z,88.46
2018-03-31T05:12:14.214Z,88.75
2018-03-31T05:12:54.654Z,88.56
2018-03-31T05:13:35.135Z,88.75
2018-03-31T05:14:15.675Z,88.93
2018-03-31T05:14:56.138Z,88.93
2018-03-31T05:15:36.709Z,88.93
2018-03-31T05:16:17.193Z,89.32
2018-03-31T05:16:57.673Z,89.79
2018-03-31T05:17:38.116Z,89.89
2018-03-31T05:18:18.661Z,89.51
2018-03-31T05:18:59.107Z,89.79
2018-03-31T05:19:39.641Z,89.98
2018-03-31T05:20:20.076Z,89.89
2018-03-31T05:21:00.532Z,89.7
2018-03-31T05:21:41.160Z,90.46
2018-03-31T05:22:21.620Z,90.7
2018-03-31T05:23:02.106Z,90.65
2018-03-31T05:23:42.607Z,90.36
2018-03-31T05:24:23.108Z,89.7
2018-03-31T05:25:03.640Z,90.17
2018-03-31T05:25:44.164Z,89.7
2018-03-31T05:26:24.720Z,89.61
2018-03-31T05:27:05.184Z,89.61
2018-03-31T05:27:45.676Z,89.41
2018-03-31T05:28:26.178Z,89.98
2018-03-31T05:29:06.696Z,89.98
2018-03-31T05:29:47.200Z,89.98
2018-03-31T05:30:27.760Z,89.98
2018-03-31T05:31:08.227Z,89.79
2018-03-31T05:31:48.695Z,89.41
2018-03-31T05:32:29.226Z,89.41
2018-03-31T05:33:09.702Z,89.51
2018-03-31T05:33:50.158Z,89.79
2018-03-31T05:34:30.681Z,89.41
2018-03-31T05:35:11.128Z,89.79
2018-03-31T05:35:51.629Z,89.51
2018-03-31T05:36:32.134Z,89.61
2018-03-31T05:37:12.640Z,89.51
2018-03-31T05:37:53.134Z,88.93
2018-03-31T05:38:33.674Z,88.93
2018-03-31T05:39:14.154Z,89.41
2018-03-31T05:39:54.640Z,88.93
2018-03-31T05:40:35.147Z,89.03
2018-03-31T05:41:15.646Z,89.22
2018-03-31T05:41:56.134Z,89.03
2018-03-31T05:42:36.645Z,88.75
2018-03-31T05:43:17.151Z,89.13
2018-03-31T05:43:59.600Z,88.65
2018-03-31T05:44:40.085Z,88.84
2018-03-31T05:45:20.561Z,88.27
2018-03-31T05:46:01.094Z,88.37
2018-03-31T05:46:41.569Z,89.03
2018-03-31T05:47:22.062Z,88.27
2018-03-31T05:48:02.572Z,88.27
2018-03-31T05:48:43.067Z,88.65
2018-03-31T05:49:23.611Z,88.22
2018-03-31T05:50:04.120Z,87.74
2018-03-31T05:50:44.608Z,87.89
2018-03-31T05:51:26.735Z,87.98
2018-03-31T05:52:07.261Z,87.93
2018-03-31T05:52:47.733Z,88.12
2018-03-31T05:53:28.245Z,88.03
2018-03-31T05:54:08.782Z,87.93
2018-03-31T05:54:49.234Z,88.12
2018-03-31T05:55:29.715Z,86.88
2018-03-31T05:56:10.203Z,87.17
2018-03-31T05:56:50.694Z,87.27
2018-03-31T05:57:31.263Z,86.69
2018-03-31T05:58:11.755Z,87.46
2018-03-31T05:58:52.224Z,87.36
2018-03-31T05:59:32.741Z,87.17
2018-03-31T06:00:13.188Z,87.17
2018-03-31T06:00:53.677Z,87.17
2018-03-31T06:01:34.187Z,86.98
2018-03-31T06:02:14.655Z,86.6
2018-03-31T06:02:55.141Z,87.07
2018-03-31T06:03:35.662Z,86.79
2018-03-31T06:04:16.115Z,86.98
2018-03-31T06:04:56.596Z,86.6
2018-03-31T06:05:37.079Z,86.98
2018-03-31T06:06:17.592Z,86.51
2018-03-31T06:06:58.150Z,86.6
2018-03-31T06:07:38.653Z,86.79
2018-03-31T06:08:19.254Z,86.41
2018-03-31T06:08:59.664Z,86.41
2018-03-31T06:09:40.152Z,86.69
2018-03-31T06:10:20.738Z,86.12
2018-03-31T06:11:01.189Z,86.26
2018-03-31T06:11:41.697Z,86.12
2018-03-31T06:12:22.171Z,86.22
2018-03-31T06:13:02.640Z,86.03
2018-03-31T06:13:43.105Z,86.41
2018-03-31T06:14:23.615Z,86.51
2018-03-31T06:15:04.085Z,86.41
2018-03-31T06:15:44.566Z,86.51
2018-03-31T06:16:25.080Z,86.6
2018-03-31T06:17:05.561Z,86.6
2018-03-31T06:17:46.060Z,86.69
2018-03-31T06:18:26.568Z,87.07
2018-03-31T06:19:07.061Z,86.6
2018-03-31T06:19:47.614Z,86.6
2018-03-31T06:20:28.068Z,86.6
2018-03-31T06:21:08.562Z,86.32
2018-03-31T06:21:49.036Z,86.22
2018-03-31T06:22:29.547Z,86.16
2018-03-31T06:23:10.065Z,86.26
2018-03-31T06:23:50.516Z,86.07
2018-03-31T06:24:30.971Z,85.6
2018-03-31T06:25:11.477Z,85.69
2018-03-31T06:25:51.963Z,85.17
2018-03-31T06:26:32.610Z,85.36
2018-03-31T06:27:13.108Z,85.41
2018-03-31T06:27:53.614Z,85.21
2018-03-31T06:28:34.088Z,85.31
2018-03-31T06:29:14.625Z,85.31
2018-03-31T06:29:55.168Z,85.31
2018-03-31T06:30:35.712Z,84.74
2018-03-31T06:31:16.165Z,84.36
2018-03-31T06:31:56.642Z,84.55
2018-03-31T06:32:37.153Z,84.26
2018-03-31T06:33:17.623Z,84.26
2018-03-31T06:33:58.127Z,84.36
2018-03-31T06:34:38.595Z,84.36
2018-03-31T06:35:19.127Z,84.45
2018-03-31T06:35:59.596Z,84.16
2018-03-31T06:36:40.110Z,84.45
2018-03-31T06:37:20.646Z,83.97
2018-03-31T06:38:01.135Z,84.36
2018-03-31T06:38:41.617Z,83.97
2018-03-31T06:39:22.143Z,84.3
2018-03-31T06:40:02.610Z,84.16
2018-03-31T06:40:43.113Z,83.78
2018-03-31T06:41:23.607Z,84.45
2018-03-31T06:42:04.133Z,84.36
2018-03-31T06:42:44.581Z,84.36
2018-03-31T06:43:25.091Z,84.36
2018-03-31T06:44:05.670Z,83.88
2018-03-31T06:44:46.128Z,83.78
2018-03-31T06:45:26.621Z,84.45
2018-03-31T06:46:07.072Z,84.01
2018-03-31T06:46:47.617Z,83.54
2018-03-31T06:47:28.176Z,84.16
2018-03-31T06:48:08.709Z,83.88
2018-03-31T06:48:49.184Z,84.74
2018-03-31T06:49:29.647Z,84.45
2018-03-31T06:50:10.170Z,83.78
2018-03-31T06:50:50.629Z,83.88
2018-03-31T06:51:31.125Z,84.16
2018-03-31T06:52:11.631Z,84.45
2018-03-31T06:52:52.120Z,83.83
2018-03-31T06:53:32.652Z,84.16
2018-03-31T06:54:13.132Z,83.73
2018-03-31T06:54:53.650Z,83.64
2018-03-31T06:55:34.119Z,83.35
2018-03-31T06:56:14.614Z,83.44
2018-03-31T06:56:55.074Z,83.06
2018-03-31T06:57:35.572Z,83.06
2018-03-31T06:58:16.084Z,83.35
2018-03-31T06:58:56.521Z,83.16
2018-03-31T06:59:36.977Z,83.35
2018-03-31T07:00:17.494Z,83.59
2018-03-31T07:00:58.066Z,83.88
2018-03-31T07:01:38.593Z,83.44
2018-03-31T07:02:19.060Z,83.64
2018-03-31T07:02:59.546Z,83.83
2018-03-31T07:03:40.036Z,83.35
2018-03-31T07:04:20.576Z,83.44
2018-03-31T07:05:01.135Z,82.97
2018-03-31T07:05:41.742Z,82.68
2018-03-31T07:06:22.200Z,82.97
2018-03-31T07:07:02.669Z,82.78
2018-03-31T07:07:43.226Z,83.06
2018-03-31T07:08:23.650Z,82.82
2018-03-31T07:09:04.141Z,82.06
2018-03-31T07:09:44.680Z,82.15
2018-03-31T07:10:25.213Z,81.86
2018-03-31T07:11:05.714Z,81.48
2018-03-31T07:11:46.216Z,81.1
2018-03-31T07:12:26.710Z,81.1
2018-03-31T07:13:07.183Z,80.66
2018-03-31T07:13:47.689Z,79.8
2018-03-31T07:14:28.208Z,79.33
2018-03-31T07:15:08.707Z,79.52
2018-03-31T07:15:49.174Z,79.61
2018-03-31T07:16:29.623Z,79.61
2018-03-31T07:17:10.131Z,79.61
2018-03-31T07:17:50.662Z,79.61
2018-03-31T07:18:31.122Z,79.71
2018-03-31T07:19:11.612Z,79.43
2018-03-31T07:19:52.167Z,78.94
2018-03-31T07:20:32.640Z,79.14
2018-03-31T07:21:13.118Z,78.85
2018-03-31T07:21:53.641Z,78.66
2018-03-31T07:22:34.093Z,79.04
2018-03-31T07:23:14.607Z,78.18
2018-03-31T07:23:55.128Z,78.56
2018-03-31T07:24:35.604Z,78.37
2018-03-31T07:25:16.111Z,78.41
2018-03-31T07:25:56.596Z,78.13
2018-03-31T07:26:37.092Z,77.94
2018-03-31T07:27:17.594Z,77.74
2018-03-31T07:27:58.104Z,77.74
2018-03-31T07:28:38.572Z,76.98
2018-03-31T07:29:19.118Z,76.6
2018-03-31T07:29:59.530Z,76.4
2018-03-31T07:30:39.999Z,76.6
2018-03-31T07:31:20.841Z,76.6
2018-03-31T07:32:01.322Z,76.31
2018-03-31T07:32:41.788Z,76.6
2018-03-31T07:33:22.264Z,76.21
2018-03-31T07:34:02.824Z,75.54
2018-03-31T07:34:43.532Z,75.59
2018-03-31T07:35:24.061Z,75.59
2018-03-31T07:36:04.546Z,74.82
2018-03-31T07:36:45.037Z,74.73
2018-03-31T07:37:25.518Z,74.73
2018-03-31T07:38:06.031Z,74.82
2018-03-31T07:38:46.564Z,74.82
2018-03-31T07:39:27.064Z,74.53
2018-03-31T07:40:07.599Z,74.63
2018-03-31T07:40:48.181Z,74.91
2018-03-31T07:41:28.707Z,74.53
2018-03-31T07:42:09.150Z,75.2
2018-03-31T07:42:49.645Z,74.82
2018-03-31T07:43:30.162Z,74.73
2018-03-31T07:44:10.677Z,74.69
2018-03-31T07:44:51.176Z,75.54
2018-03-31T07:45:31.771Z,75.68
2018-03-31T07:46:12.148Z,75.59
2018-03-31T07:46:52.707Z,75.3
2018-03-31T07:47:33.201Z,75.59
2018-03-31T07:48:13.688Z,75.39
2018-03-31T07:48:54.175Z,75.26
2018-03-31T07:49:35.169Z,75.45
2018-03-31T07:50:15.266Z,75.59
2018-03-31T07:50:55.765Z,75.68
2018-03-31T07:51:36.270Z,75.07
2018-03-31T07:52:16.798Z,75.26
2018-03-31T07:52:57.289Z,75.54
2018-03-31T07:53:37.839Z,75.54
2018-03-31T07:54:18.544Z,75.3
2018-03-31T07:54:59.078Z,75.01
2018-03-31T07:55:39.576Z,74.34
2018-03-31T07:56:20.070Z,74.53
2018-03-31T07:57:00.665Z,74.82
2018-03-31T07:57:41.115Z,74.15
2018-03-31T07:58:21.803Z,74.34
2018-03-31T07:59:02.610Z,73.67
2018-03-31T07:59:43.177Z,73.48
2018-03-31T08:00:23.654Z,73.19
2018-03-31T08:01:04.214Z,72.72
2018-03-31T08:01:44.736Z,73.29
2018-03-31T08:02:25.227Z,72.62
2018-03-31T08:03:05.790Z,72.53
2018-03-31T08:03:46.280Z,72.24
2018-03-31T08:04:26.759Z,72.62
2018-03-31T08:05:07.260Z,72.53
2018-03-31T08:05:47.729Z,71.95
2018-03-31T08:06:28.256Z,71.38
2018-03-31T08:07:08.974Z,71.47
2018-03-31T08:07:49.463Z,72.14
2018-03-31T08:08:29.935Z,71.57
2018-03-31T08:09:10.447Z,71.57
2018-03-31T08:09:50.962Z,71.95
2018-03-31T08:10:31.417Z,71.47
2018-03-31T08:11:11.918Z,71.47
2018-03-31T08:11:52.418Z,71.38
2018-03-31T08:12:32.985Z,71.38
2018-03-31T08:13:13.469Z,70.71
2018-03-31T08:13:53.958Z,70.9
2018-03-31T08:14:34.476Z,70.14
2018-03-31T08:15:15.061Z,70.42
2018-03-31T08:15:56.030Z,69.95
2018-03-31T08:16:38.025Z,70.04
2018-03-31T08:17:18.521Z,69.09
2018-03-31T08:17:59.038Z,68.99
2018-03-31T08:18:39.618Z,68.99
2018-03-31T08:19:20.119Z,68.32
2018-03-31T08:20:00.617Z,68.32
2018-03-31T08:20:41.116Z,68.99
2018-03-31T08:21:21.688Z,68.04
2018-03-31T08:22:02.270Z,68.51
2018-03-31T08:22:42.722Z,68.16
2018-03-31T08:23:23.233Z,67.75
2018-03-31T08:24:03.809Z,67.75
2018-03-31T08:24:44.540Z,68.07
2018-03-31T08:25:25.025Z,68.07
2018-03-31T08:26:05.822Z,68.41
2018-03-31T08:26:46.450Z,68.55
2018-03-31T08:27:26.930Z,68.64
2018-03-31T08:28:07.490Z,69.12
2018-03-31T08:28:47.890Z,69.02
2018-03-31T08:29:28.788Z,69.02
2018-03-31T08:30:09.776Z,69.21
2018-03-31T08:30:50.277Z,68.93
2018-03-31T08:31:30.722Z,69.02
2018-03-31T08:32:11.363Z,68.93
2018-03-31T08:32:52.160Z,69.02
2018-03-31T08:33:32.663Z,69.27
2018-03-31T08:34:13.219Z,69.5
2018-03-31T08:34:53.855Z,69.6
2018-03-31T08:35:34.326Z,69.56
2018-03-31T08:36:14.984Z,69.76
2018-03-31T08:36:55.641Z,68.93
2018-03-31T08:37:36.173Z,68.26
2018-03-31T08:38:16.817Z,68.51
2018-03-31T08:38:57.253Z,68.64
2018-03-31T08:39:37.763Z,68.45
2018-03-31T08:40:18.278Z,68.64
2018-03-31T08:40:58.798Z,68.45
2018-03-31T08:41:39.528Z,68.07
2018-03-31T08:42:19.836Z,68.35
2018-03-31T08:43:00.275Z,68.64
2018-03-31T08:43:40.791Z,68.16
2018-03-31T08:44:21.411Z,68.93
2018-03-31T08:45:02.069Z,69.12
2018-03-31T08:45:42.836Z,68.93
2018-03-31T08:46:23.342Z,67.88